Nashville, TN

6:37 PM CST on February 06, 2016 (GMT -0600)
APRSWXNET | | Change Station
CLOSE
Current Station
Personal Weather Station
Location: Nashville, TN
Elevation: 551 ft
Nearby Weather Stations

Elev 551 ft 36.14 °N, 86.80 °W | Updated 28 minutes ago

Mostly Cloudy
Mostly Cloudy
49 °F
Feels Like 49 °F
N
1
Wind Variable Wind from North
Gusts 3.0 mph

Today
High -- | Low -- °F
--% Chance of Precip.
Yesterday
High -- | Low -- °F
Precip. -- in
Pressure 30.30 in
Visibility 10.0 miles
Clouds Few 15000 ft
Mostly Cloudy 20000 ft
Windchill 49 °F
Dew Point 22 °F
Humidity 34%
Rainfall in
Snow Depth Not available.
6:44 AM 5:18 PM
Waning Crescent, 3% visible
METAR KBNA 062353Z 00000KT 10SM FEW150 BKN200 09/M09 A3029 RMK AO2 SLP261 T00891089 10122 20083 56004
Pressure 30.30 in
Visibility 10.0 miles
Clouds Few 15000 ft
Mostly Cloudy 20000 ft
Windchill 49 °F
Dew Point 22 °F
Humidity 34%
Rainfall in
Snow Depth Not available.
6:44 AM 5:18 PM
Waning Crescent, 3% visible
METAR KBNA 062353Z 00000KT 10SM FEW150 BKN200 09/M09 A3029 RMK AO2 SLP261 T00891089 10122 20083 56004

10-Day Weather Forecast

Almanac

Astronomy

Feb. 06, 2016 Rise Set
Actual Time
Civil Twilight
Nautical Twilight
Astronomical Twilight
Moon
Length of Visible Light
Length of Day
Tomorrow will be .
, % of the Moon is Illuminated

Today's Extremes

State Highs State Lows

Community

WunderPhotos

Upload Photos

1,891,108 photos uploaded!

WunderBlog® & News

Nearby

Air Quality

  Air Quality AQ Index Pollutant
Not available.

Snow Depth

Station Depth Elevation

Earthquake Activity

City Distance Mag. Time & Date
Minimum magnitude displayed is 2.5.

Coastal Water Temperatures

Place Temperature

Stations

Nearby Weather Stations

Station Location Temp. Windchill Dew Point Humidity Wind Precip. Elev Updated Type
                   

Watches & Warnings

There are currently no watches in effect.